Tiempo atmosférico en la estación meteorológica de Calamocha, Teruel (890 m.)



Fecha
DESCASC
Temp. máxima en grados centígrados (hora)
DESCASC
Temp. mínima en grados centígrados (hora)
DESCASC
Temp. media en grados centígrados
DESCASC
Racha de viento máxima en m/sg (hora)
DESCASC
Velocidad máxima media en intervalos de 10 minutos(hora)
DESCASC
Precipitaciones diarias en mm
DESCASC
Precipitaciones de 00:00 a 06:00 en mm
DESCASC
Precipitaciones de 06:00 a 12:00 en mm
DESCASC
Precipitaciones de 12:00 a 18:00 en mm
DESCASC
Precipitaciones de 18:00 a 24:00 en mm
DESCASC
20-09-2018 30.6 (16:50) 13.1 (07:50) 21.9 5.28 (16:20) 3.61 (02:10) 0 0 0 0 0
19-09-2018 28.8 (15:30) 11.9 (07:50) 20.3 6.67 (16:20) 4.17 (16:30) 0 0 0 0 0
18-09-2018 28 (16:20) 12.7 (08:00) 20.3 11.67 (19:40) 4.44 (18:50) 0.6 0 0 0 0.6
17-09-2018 30.2 (15:40) 12.2 (07:30) 21.2 9.72 (23:00) 6.67 (18:20) 6.2 0 0 3.8 2.4
16-09-2018 29.8 (16:20) 11.7 (00:00) 20.7 6.67 (18:50) 5 (21:10) 0 0 0 0 0
15-09-2018 27.6 (14:40) 11.9 (00:00) 19.8 9.17 (18:00) 6.11 (18:20) 0 0 0 0 0
14-09-2018 30 (16:50) 12.2 (00:00) 21.1 7.22 (18:10) 4.44 (20:00) 0 0 0 0 0
13-09-2018 28.1 (17:10) 11.1 (00:00) 19.6 5.83 (18:10) 2.5 (14:50) 0 0 0 0 0
12-09-2018 26.4 (17:40) 14.5 (00:00) 20.4 10.28 (06:40) 4.17 (07:30) 3.2 1.6 1.6 0 0
11-09-2018 23.1 (17:50) 11.8 (00:00) 17.5 6.94 (19:20) 4.17 (19:50) 1.2 0 0 0.4 0.8
10-09-2018 25 (16:10) 15.7 (00:00) 20.3 7.78 (09:40) 5.28 (18:10) 0 0 0 0 0
09-09-2018 26.9 (15:10) 13.9 (00:00) 20.4 11.67 (18:40) 8.33 (18:40) 0.2 0 0 0 0.2
08-09-2018 26.3 (17:00) 12.2 (00:00) 19.2 11.11 (13:10) 5.83 (13:10) 0 0 0 0 0
07-09-2018 26.9 (15:40) 9.8 (00:00) 18.3 8.06 (16:40) 5.56 (16:40) 6 0 0 6 0
06-09-2018 23.4 (14:50) 12.1 (00:00) 17.8 7.5 (19:30) 3.61 (14:40) 0 0 0 0 0
05-09-2018 27.3 (13:10) 14 (00:00) 20.6 9.72 (15:00) 5.28 (19:20) 1 0 0 1 0
04-09-2018 29.5 (14:50) 12.7 (00:00) 21.1 10 (16:50) 6.94 (16:40) 0.4 0 0 0.4 0
03-09-2018 30.8 (16:30) 17.7 (00:00) 24.3 15.56 (20:50) 7.5 (20:40) 3.8 0.4 3.4 0 0
02-09-2018 31.9 (17:10) 12.9 (00:00) 22.4 8.33 (19:20) 5.83 (18:40) 0 0 0 0 0
01-09-2018 30.4 (16:20) 12.5 (00:00) 21.4 6.11 (19:40) 2.78 (19:40) 0 0 0 0 0
31-08-2018 28.5 (15:50) 16.4 (00:00) 22.4 8.06 (17:30) 3.89 (17:50) 0 0 0 0 0
30-08-2018 30.1 (15:40) 13.6 (00:00) 21.9 10.56 (17:40) 6.94 (17:30) 0.4 0 0 0.4 0
29-08-2018 28.1 (14:50) 14.5 (00:00) 21.3 10.56 (00:10) 6.94 (00:10) 0 0 0 0 0
28-08-2018 33.5 (15:50) 17.8 (00:00) 25.6 13.33 (20:30) 6.94 (20:30) 2 0 0 0 2
27-08-2018 34.7 (17:20) 12.1 (00:00) 23.4 8.06 (19:50) 5.28 (20:10) 0 0 0 0 0
26-08-2018 30.5 (17:40) 10 (00:00) 20.3 7.5 (14:30) 5 (21:00) 0 0 0 0 0
25-08-2018 27.1 (15:30) 9.7 (00:00) 18.4 8.89 (21:20) 4.44 (18:10) 0 0 0 0 0

Gráficas

Temp. máximas Temp. mínimas Temp. medias Precipitaciones Rachas de viento máximas Velocidades máximas media en intervalos de 10 minutos

Datos horarios

Fecha y hora oficial Temperatura (ºC) Velocidad del viento (km/h) Dirección del viento Racha (km/h) Dirección de racha Precipitación (mm) Presión (hPa) Tendencia (hPa) Humedad (%)
2018-09-23 23:00:00 22 6 Norte 22 Norte 0 924.2 2.4 54
2018-09-23 22:00:00 22.5 4 Nordeste 15 Noroeste 0 923.4 1.9 43
2018-09-23 21:00:00 24.9 6 Norte 18 Nordeste 0 922.7 1.3 39
2018-09-23 20:00:00 27.3 9 Norte 20 Norte 0 921.8 0.3 31
2018-09-23 19:00:00 29.5 6 Norte 19 Norte 0 921.5 -0.5 29
2018-09-23 18:00:00 31.4 4 Noroeste 19 Norte 0 921.4 -1.3 29
2018-09-23 17:00:00 32 7 Oeste 24 Oeste 0 921.5 -2 25
2018-09-23 16:00:00 31.4 8 Noroeste 24 Noroeste 0 922 -2.2 27
2018-09-23 15:00:00 30.6 5 Sudeste 13 Sudoeste 0 922.7 -2 26
2018-09-23 14:00:00 29.9 6 Sur 13 Oeste 0 923.5 -1.5 31
2018-09-23 13:00:00 27.3 4 Sudoeste 10 Sudoeste 0 924.2 -0.7 41
2018-09-23 12:00:00 24.1 4 Sudoeste 8 Sudoeste 0 924.7 0.1 49
2018-09-23 11:00:00 20.4 4 Sudoeste 8 Sur 0 925 0.6 59
2018-09-23 10:00:00 17.6 4 Sur 8 Sur 0 924.9 0.7 71
2018-09-23 09:00:00 13.6 2 Este 3 Este 0 924.6 0.4 84
2018-09-23 08:00:00 11.7 0 Calma 4 Sudoeste 0 924.4 0 88
2018-09-23 07:00:00 12.1 3 Sudoeste 6 Sur 0 924.2 -0.4 87
2018-09-23 06:00:00 12.3 0 Calma 7 Sur 0 924.2 -0.7 86
2018-09-23 05:00:00 12.8 4 Sur 7 Sudeste 0 924.4 -0.7 82
2018-09-23 04:00:00 13.2 3 Norte 4 Nordeste 0 924.6 -0.4 80
2018-09-23 03:00:00 14 0 Calma 4 Norte 0 924.9 0.1 76
2018-09-23 02:00:00 15.1 3 Nordeste 5 Sudeste 0 925.1 0.5 72
2018-09-23 01:00:00 16.4 3 Sudeste 5 Sudeste 0 925 0.9 68
2018-09-23 00:00:00 17.9 3 Sur 8 Sur 0 924.8 1.3 59
2018-09-22 23:00:00 19.1 2 Norte 6 Sudeste 0 924.6 1.9 54
2018-09-22 22:00:00 20.9 3 Nordeste 8 Norte 0 924.1 1.8 47
2018-09-22 21:00:00 23.3 4 Norte 12 Nordeste 0 923.5 1.3 41
2018-09-22 20:00:00 26.2 9 Norte 20 Norte 0 922.7 0.3 34
2018-09-22 19:00:00 29.1 8 Norte 14 Nordeste 0 922.3 -0.3 26
2018-09-22 18:00:00 29.9 7 Norte 16 Noroeste 0 922.2 -0.8 28
2018-09-22 17:00:00 29.9 7 Norte 19 Norte 0 922.4 -1 24
2018-09-22 16:00:00 30 6 Noroeste 31 Noroeste 0 922.6 -1.3 25
2018-09-22 15:00:00 29.4 6 Noroeste 15 Norte 0 923 -1.2 34
2018-09-22 14:00:00 28.8 5 Sudoeste 9 Noroeste 0 923.4 -0.7 38
2018-09-22 13:00:00 26.2 3 Nordeste 12 Sur 0 923.9 0.1 43
2018-09-22 12:00:00 23.5 7 Sur 16 Sur 0 924.2 0.6 56
2018-09-22 11:00:00 20.2 7 Sur 17 Sudoeste 0 924.1 0.9 64
2018-09-22 10:00:00 17.7 5 Sur 9 Sur 0 923.8 1 71
2018-09-22 09:00:00 14.2 3 Sur 10 Sur 0 923.6 1 83
2018-09-22 08:00:00 12.2 2 Nordeste 9 Sur 0 923.2 0.7 89
2018-09-22 07:00:00 12.8 5 Sur 9 Sur 0 922.8 0.1 86
2018-09-22 06:00:00 13 0 Calma 5 Nordeste 0 922.6 -0.4 84
2018-09-22 05:00:00 13.5 2 Noroeste 5 Este 0 922.5 -0.6 81
2018-09-22 04:00:00 14.1 2 Noroeste 8 Norte 0 922.7 -0.4 77
2018-09-22 03:00:00 15.1 2 Norte 6 Norte 0 923 0.2 75
2018-09-22 02:00:00 16 3 Norte 7 Este 0 923.1 0.5 71
2018-09-22 01:00:00 17.2 3 Norte 7 Norte 0 923.1 1.3 64
2018-09-22 00:00:00 18.4 3 Noroeste 10 Norte 0 922.8 1.9 59
2018-09-21 23:00:00 19.7 5 Norte 21 Norte 0 922.6 2.8 55
2018-09-21 22:00:00 20.7 7 Norte 18 Norte 0 921.8 2.5 52
2018-09-21 21:00:00 22.2 8 Norte 22 Norte 0 920.9 2 50
2018-09-21 20:00:00 25 9 Nordeste 26 Norte 0 919.8 1 42
2018-09-21 19:00:00 28 9 Norte 21 Noroeste 0 919.3 0.2 31
2018-09-21 18:00:00 28.7 6 Norte 18 Norte 0 918.9 -0.6 34
2018-09-21 17:00:00 29.3 6 Norte 18 Norte 0 918.8 -1.1 31
2018-09-21 16:00:00 28.4 7 Norte 14 Norte 0 919.1 -1.3 34
2018-09-21 15:00:00 29.4 5 Noroeste 13 Oeste 0 919.5 -1.3 35
2018-09-21 14:00:00 27.6 6 Sudeste 10 Este 0 919.9 -1 40
2018-09-21 13:00:00 26.2 5 Sudoeste 11 Sur 0 920.4 0.1 46
2018-09-21 12:00:00 24 5 Sur 12 Sudeste 0 920.8 0.8 53
2018-09-21 11:00:00 21.2 5 Sur 10 Sur 0 920.9 1.3 66
2018-09-21 10:00:00 18 2 Sur 6 Sur 0 920.3 1.2 79
2018-09-21 09:00:00 14.8 0 Calma 5 Sur 0 920 1.1 89
2018-09-21 08:00:00 14 3 Sur 5 Sudeste 0 919.6 0.8 91
2018-09-21 07:00:00 14.8 3 Sur 12 Sudeste 0 919.1 0.2 89
2018-09-21 06:00:00 15.3 8 Sudeste 13 Sudeste 0 918.9 -0.1 88
2018-09-21 05:00:00 15.3 7 Sudeste 9 Sudeste 0 918.8 -0.3 88
2018-09-21 04:00:00 16.1 7 Sudeste 10 Sudeste 0 918.9 -0.5 88
2018-09-21 03:00:00 16.7 8 Sudeste 10 Sudeste 0 919 -0.5 83
2018-09-21 02:00:00 17.2 7 Sudeste 10 Sur 0 919.1 -0.4 80
2018-09-21 01:00:00 17.8 7 Sudeste 10 Sur 0 919.4 0.2 75
2018-09-21 00:00:00 19 6 Sur 11 Sur 0 919.5 0.8 69
2018-09-20 23:00:00 20 5 Sur 13 Sudeste 0 919.5 1.2 65
2018-09-20 22:00:00 20.7 0 Calma 12 Oeste 0 919.2 0.6 63
2018-09-20 21:00:00 21.4 5 Norte 11 Sudeste 0 918.7 0.5 61
2018-09-20 20:00:00 24.2 4 Sudeste 13 Norte 0 918.3 -0.2 47
2018-09-20 19:00:00 25.6 3 Norte 15 Oeste 0 918.6 -0.4 42
2018-09-20 18:00:00 28.1 10 Sudoeste 19 Sudoeste 0 918.2 -1.5 34
2018-09-20 17:00:00 30.4 7 Sudoeste 19 Oeste 0 918.5 -1.9 30
2018-09-20 16:00:00 30.2 4 Sur 13 Sur 0 919 -2.1 29
2018-09-20 15:00:00 29.2 9 Sudoeste 16 Sudoeste 0 919.7 -1.9 33
2018-09-20 14:00:00 28.5 6 Sur 13 Oeste 0 920.4 -1.5 33
2018-09-20 13:00:00 26.5 4 Sur 12 Sudoeste 0 921.1 -0.8 46
2018-09-20 12:00:00 23.6 6 Sur 15 Sudoeste 0 921.6 -0.3 60
2018-09-20 11:00:00 20.5 7 Sur 12 Sur 0 921.9 0.2 74
2018-09-20 10:00:00 18 7 Sur 10 Sur 0 921.9 0.3 82
2018-09-20 09:00:00 15.6 3 Sur 8 Sur 0 921.9 0.3 90
2018-09-20 08:00:00 13.1 0 Calma 5 Oeste 0 921.7 0 94
2018-09-20 07:00:00 14 0 Calma 9 Sudeste 0 921.6 -0.3 90
2018-09-20 06:00:00 15.2 7 Sudeste 12 Sudeste 0 921.6 -0.4 93
2018-09-20 05:00:00 15.5 9 Sudeste 13 Este 0 921.7 -0.5 86
2018-09-20 04:00:00 15.8 5 Sudeste 12 Este 0 921.9 -0.4 84
2018-09-20 03:00:00 16 5 Sudeste 16 Este 0 922 -0.3 82
2018-09-20 02:00:00 16.5 9 Sudeste 13 Sudeste 0 922.2 0.2 79
2018-09-20 01:00:00 17.4 8 Sudeste 9 Sudeste 0 922.3 0.8 79
2018-09-20 00:00:00 17.8 3 Sur 10 Este 0 922.3 1.4 77
2018-09-19 23:00:00 19.5 11 Sudeste 16 Este 0 922 1.4 70
2018-09-19 22:00:00 20.7 6 Sudeste 14 Sudeste 0 921.5 1.2 63
2018-09-19 21:00:00 22 10 Este 13 Este 0 920.9 0.8 56
2018-09-19 20:00:00 25 10 Sudeste 14 Sudeste 0 920.6 0.3 47
2018-09-19 19:00:00 27 8 Sudeste 17 Sudeste 0 920.3 -0.3 41
2018-09-19 18:00:00 27.7 10 Sudeste 21 Este 0 920.1 -0.8 39
2018-09-19 17:00:00 27.4 15 Este 24 Este 0 920.3 -1.3 39
2018-09-19 16:00:00 27.8 9 Este 19 Este 0 920.6 -1.4 40
2018-09-19 15:00:00 28.2 5 Noroeste 17 Oeste 0 920.9 -1.3 40
2018-09-19 14:00:00 26.3 6 Sudoeste 11 Oeste 0 921.6 -0.7 47
2018-09-19 13:00:00 24.4 4 Oeste 10 Oeste 0 922 0.1 55
2018-09-19 12:00:00 21.8 5 Sur 10 Sur 0 922.2 0.6 64
2018-09-19 11:00:00 19.1 6 Sur 14 Sudeste 0 922.3 1.2 75
2018-09-19 10:00:00 16.4 8 Sudeste 14 Sur 0 921.9 1.3 87
2018-09-19 09:00:00 13.8 5 Sudeste 9 Sur 0 921.6 1.2 93
2018-09-19 08:00:00 11.9 3 Oeste 6 Sudeste 0 921.1 0.9 96
2018-09-19 07:00:00 12.2 5 Sur 6 Sur 0 920.6 0.5 96
2018-09-19 06:00:00 12.8 4 Sur 6 Sudeste 0 920.4 0.1 95
2018-09-19 05:00:00 13.3 3 Oeste 8 Sudeste 0 920.2 -0.1 95
2018-09-19 04:00:00 13.5 0 Calma 6 Sur 0 920.1 0 95
2018-09-19 03:00:00 14.3 4 Sur 8 Sur 0 920.3 0 94
2018-09-19 02:00:00 14.8 0 Calma 5 Noroeste 0 920.3 0 93
2018-09-19 01:00:00 15.4 4 Sudeste 7 Sudeste 0 920.1 0.4 92
2018-09-19 00:00:00 15.6 3 Nordeste 8 Sudeste 0 920.3 2.1 91
2018-09-18 23:00:00 16.6 7 Sur 16 Sudoeste 0 920.3 2.2 86
2018-09-18 22:00:00 17.5 8 Sudoeste 26 Sur 0 919.7 2.8 82
2018-09-18 21:00:00 18.6 11 Sudeste 20 Sudeste 0.6 918.2 2 84
2018-09-18 20:00:00 20.5 6 Noroeste 42 Norte 0 918.1 2 63
2018-09-18 19:00:00 23.8 14 Este 22 Sudeste 0 916.9 0.6 56
2018-09-18 18:00:00 25.2 13 Sudeste 19 Sudeste 0 916.2 -0.6 51
2018-09-18 17:00:00 26.9 5 Nordeste 14 Norte 0 916.1 -1.1 37
2018-09-18 16:00:00 27.4 7 Sudoeste 17 Oeste 0 916.3 -1.6 42
2018-09-18 15:00:00 25.9 4 Oeste 14 Oeste 0 916.8 -1.4 46
2018-09-18 14:00:00 25.4 4 Sudoeste 11 Sudoeste 0 917.2 -1.3 52
2018-09-18 13:00:00 23.6 3 Sudoeste 10 Oeste 0 917.9 -0.3 57
2018-09-18 12:00:00 21.9 3 Sudeste 10 Sur 0 918.2 0.5 65
2018-09-18 11:00:00 19.1 3 Noroeste 6 Noroeste 0 918.5 1.4 73
2018-09-18 10:00:00 17 2 Sudoeste 6 Sudoeste 0 918.2 1.3 82
2018-09-18 09:00:00 14.8 3 Sur 5 Sudeste 0 917.7 0.6 93
2018-09-18 08:00:00 12.7 0 Calma 4 Nordeste 0 917.1 0.1 95
2018-09-18 07:00:00 13.6 5 Este 8 Sudeste 0 916.9 0 95
2018-09-18 06:00:00 13.6 4 Sudeste 8 Sudeste 0 917.1 -0.1 95
2018-09-18 05:00:00 14.3 7 Sudeste 9 Sudeste 0 917 -0.4 92
2018-09-18 04:00:00 14.6 6 Sudeste 11 Sudeste 0 916.9 -1.2 91
2018-09-18 03:00:00 14.8 0 Calma 9 Sudoeste 0 917.2 -1 91
2018-09-18 02:00:00 15.9 4 Sudoeste 16 Sur 0 917.4 -0.6 86
2018-09-18 01:00:00 16.6 6 Sur 19 Oeste 0 918.1 0.5 84
2018-09-18 00:00:00 16.7 8 Sudoeste 35 Sudoeste 0 918.2 0.3 85
2018-09-17 23:00:00 16.8 18 Sudoeste 35 Sudoeste 0 918 0.3 88
2018-09-17 22:00:00 16.9 5 Sur 19 Sudoeste 0.2 917.6 0.1 88
2018-09-17 21:00:00 17.3 8 Sudeste 24 Sudeste 0.2 917.9 0.3 83
2018-09-17 20:00:00 18.2 11 Sudoeste 27 Este 0.2 917.7 1 75
2018-09-17 19:00:00 18.2 22 Este 35 Este 1.8 917.5 0.5 80
2018-09-17 18:00:00 19 11 Sur 35 Este 3.8 917.6 0.2 83
2018-09-17 17:00:00 22.6 17 Este 28 Nordeste 0 916.7 -1.6 65
2018-09-17 16:00:00 27 13 Este 28 Este 0 917 -2.1 44
2018-09-17 15:00:00 29 6 Este 15 Oeste 0 917.4 -2.5 34
2018-09-17 14:00:00 28.2 7 Oeste 13 Oeste 0 918.3 -2.1 38
2018-09-17 13:00:00 26.5 5 Sudoeste 13 Oeste 0 919.1 -1.5 45
2018-09-17 12:00:00 23.6 5 Sudoeste 11 Sudoeste 0 919.9 -0.7 58
2018-09-17 11:00:00 20.6 5 Sudoeste 12 Sudoeste 0 920.4 -0.2 71
2018-09-17 10:00:00 18.5 7 Sur 12 Sur 0 920.6 0.2 79
2018-09-17 09:00:00 15.8 3 Sur 7 Sudeste 0 920.6 0.3 90
2018-09-17 08:00:00 12.8 4 Sudeste 8 Sudeste 0 920.6 0.1 94
2018-09-17 07:00:00 12.7 3 Sur 5 Sur 0 920.4 0 86
2018-09-17 06:00:00 12.8 3 Noroeste 6 Sudeste 0 920.3 -0.2 84
2018-09-17 05:00:00 13.6 2 Sudeste 6 Nordeste 0 920.5 -0.4 81
2018-09-17 04:00:00 14.6 0 Calma 5 Sudeste 0 920.4 -0.8 76
2018-09-17 03:00:00 16.2 9 Este 16 Este 0 920.5 -0.6 67
2018-09-17 02:00:00 17.3 10 Este 16 Este 0 920.9 -0.1 62
2018-09-17 01:00:00 18 7 Sudeste 14 Sur 0 921.2 0.6 72
2018-09-17 00:00:00 17.9 3 Sudoeste 9 Sudoeste 0 921.1 1.1 60
2018-09-16 23:00:00 19.9 4 Sudoeste 14 Este 0 921 1.1 53
2018-09-16 22:00:00 21.5 10 Este 23 Este 0 920.6 0.9 46
2018-09-16 21:00:00 22.8 15 Este 22 Este 0 920 0.8 41
2018-09-16 20:00:00 25.2 12 Este 22 Este 0 919.9 0.6 36
2018-09-16 19:00:00 27.1 13 Este 24 Nordeste 0 919.7 0 34
2018-09-16 18:00:00 29.3 4 Noroeste 14 Norte 0 919.2 -1 26
2018-09-16 17:00:00 29.1 5 Norte 19 Norte 0 919.3 -1.5 30
2018-09-16 16:00:00 29.4 6 Oeste 15 Sudoeste 0 919.7 -1.7 31
2018-09-16 15:00:00 28.2 5 Sudoeste 13 Norte 0 920.2 -1.6 35
2018-09-16 14:00:00 26.6 4 Sudoeste 14 Sudoeste 0 920.8 -1.1 42
2018-09-16 13:00:00 24.5 4 Nordeste 13 Oeste 0 921.4 -0.4 46
2018-09-16 12:00:00 22.9 5 Sur 11 Sudoeste 0 921.8 -0.2 53
2018-09-16 11:00:00 19.8 4 Sur 8 Sur 0 921.9 0.2 63
2018-09-16 10:00:00 16.1 4 Sudoeste 5 Sudoeste 0 921.8 0.4 74
2018-09-16 09:00:00 13.7 0 Calma 9 Sudeste 0 922 0.8 83
2018-09-16 08:00:00 12.3 10 Sudeste 14 Sudeste 0 921.7 0.7 87
2018-09-16 07:00:00 12.7 9 Sudeste 15 Sudeste 0 921.4 0.4 88
2018-09-16 06:00:00 11.8 6 Sudeste 13 Sudeste 0 921.2 -0.1 87
2018-09-16 05:00:00 12.1 3 Sudoeste 8 Sur 0 921 -0.8 84
2018-09-16 04:00:00 12.9 5 Sur 12 Sudeste 0 921 -1 85
2018-09-16 03:00:00 13.4 0 Calma 8 Sudeste 0 921.3 -0.8 85
2018-09-16 02:00:00 14.5 8 Este 12 Este 0 921.8 0 78
2018-09-16 01:00:00 15.4 6 Sudeste 11 Sudeste 0 922 0.7 81
2018-09-16 00:00:00 16.8 6 Sudeste 8 Sur 0 922.1 1.6 76
2018-09-15 23:00:00 17.8 6 Sudeste 11 Sur 0 921.8 1.9 73
2018-09-15 22:00:00 19.5 6 Sur 18 Sudoeste 0 921.3 1.7 70
2018-09-15 21:00:00 21.1 9 Sudoeste 18 Sudoeste 0 920.5 1.2 63
2018-09-15 20:00:00 23 14 Este 25 Este 0 919.9 0.6 52
2018-09-15 19:00:00 24.8 15 Este 30 Este 0 919.6 0.3 45
2018-09-15 18:00:00 25.8 21 Este 33 Este 0 919.3 -0.5 42
2018-09-15 17:00:00 25.3 12 Nordeste 23 Nordeste 0 919.3 -1.2 41
2018-09-15 16:00:00 27.2 7 Norte 23 Nordeste 0 919.3 -1.7 41
2018-09-15 15:00:00 26.2 6 Nordeste 19 Norte 0 919.8 -1.4 41
2018-09-15 14:00:00 26.6 6 Oeste 13 Noroeste 0 920.5 -1 45
2018-09-15 13:00:00 25 4 Oeste 12 Oeste 0 921 -0.4 49
2018-09-15 12:00:00 22.9 5 Oeste 12 Oeste 0 921.2 -0.1 59
2018-09-15 11:00:00 20.4 3 Sudoeste 10 Norte 0 921.5 0.6 65
2018-09-15 10:00:00 17.8 5 Noroeste 10 Norte 0 921.4 0.9 77
2018-09-15 09:00:00 13.5 3 Noroeste 8 Norte 0 921.3 0.9 93
2018-09-15 08:00:00 12.1 4 Norte 7 Norte 0 920.9 0.8 93
2018-09-15 07:00:00 12 2 Norte 5 Norte 0 920.5 0 91
2018-09-15 06:00:00 12.4 0 Calma 4 Norte 0 920.4 -0.5 90
2018-09-15 05:00:00 12.8 3 Nordeste 8 Sudeste 0 920.1 -0.8 88
2018-09-15 04:00:00 13.3 2 Este 6 Norte 0 920.5 -0.3 88
2018-09-15 03:00:00 14 3 Noroeste 7 Norte 0 920.9 0.4 84
2018-09-15 02:00:00 14.7 4 Norte 6 Este 0 920.9 0.9 80
2018-09-15 01:00:00 15.7 3 Nordeste 6 Norte 0 920.8 1.1 75
2018-09-15 00:00:00 16.5 2 Norte 4 Nordeste 0 920.5 1.2 70
2018-09-14 23:00:00 18.2 2 Norte 8 Norte 0 920 1.2 65
2018-09-14 22:00:00 20 2 Sudeste 8 Nordeste 0 919.7 1.3 56
2018-09-14 21:00:00 21.8 8 Este 24 Este 0 919.3 1.2 50
2018-09-14 20:00:00 23.5 16 Este 24 Este 0 918.8 0.8 45
2018-09-14 19:00:00 25.3 11 Nordeste 26 Nordeste 0 918.4 0 41
2018-09-14 18:00:00 26.4 13 Nordeste 24 Norte 0 918.1 -0.8 39
2018-09-14 17:00:00 29.7 4 Noroeste 11 Oeste 0 918 -1.5 30
2018-09-14 16:00:00 29.3 4 Noroeste 13 Norte 0 918.4 -1.7 32
2018-09-14 15:00:00 28.3 4 Oeste 9 Noroeste 0 918.9 -1.6 35
2018-09-14 14:00:00 26.4 3 Noroeste 7 Noroeste 0 919.5 -1.1 32
2018-09-14 13:00:00 23.3 0 Calma 8 Oeste 0 920.1 -0.2 58
2018-09-14 12:00:00 20.3 4 Sudoeste 16 Sur 0 920.5 0.6 73
2018-09-14 11:00:00 18.1 8 Sudoeste 14 Sudoeste 0 920.6 0.8 83
2018-09-14 10:00:00 15.6 5 Sur 10 Sur 0 920.3 0.5 94
2018-09-14 09:00:00 14 5 Sudeste 13 Sur 0 919.9 0.5 97
2018-09-14 08:00:00 13.1 6 Sudeste 13 Sudeste 0 919.8 0.1 97
2018-09-14 07:00:00 12.3 4 Sur 12 Sudeste 0 919.8 0.1 86
2018-09-14 06:00:00 12.7 4 Sudeste 11 Sudeste 0 919.4 -0.5 88
2018-09-14 05:00:00 12.4 4 Sudeste 8 Sudeste 0 919.7 -0.6 92
2018-09-14 04:00:00 13.3 0 Calma 10 Sur 0 919.7 -0.9 87
2018-09-14 03:00:00 14.1 4 Sudeste 12 Sudeste 0 919.9 -0.5 86
2018-09-14 02:00:00 14.5 0 Calma 6 Norte 0 920.3 0.2 88
2018-09-14 01:00:00 15.3 3 Norte 8 Norte 0 920.6 0.8 84
2018-09-14 00:00:00 16.7 0 Calma 8 Nordeste 0 920.4 1.4 78
2018-09-13 23:00:00 17.2 4 Norte 7 Norte 0 920.1 1.5 79
2018-09-13 22:00:00 19.4 2 Oeste 9 Noroeste 0 919.8 1.1 69
2018-09-13 21:00:00 21.3 3 Norte 10 Noroeste 0 919 0.2 63
2018-09-13 20:00:00 24 6 Norte 14 Norte 0 918.6 -0.3 52
2018-09-13 19:00:00 25.9 7 Nordeste 21 Nordeste 0 918.7 -0.8 41
2018-09-13 18:00:00 27.9 5 Noroeste 18 Nordeste 0 918.8 -1.2 35
2018-09-13 17:00:00 27.8 5 Noroeste 18 Norte 0 918.9 -1.5 33
2018-09-13 16:00:00 26.9 7 Noroeste 21 Norte 0 919.5 -1.3 37
2018-09-13 15:00:00 26.2 9 Norte 18 Norte 0 920 -1.3 37
2018-09-13 14:00:00 25.5 5 Noroeste 15 Noroeste 0 920.4 -0.9 46
2018-09-13 13:00:00 23.7 4 Noroeste 9 Noroeste -- 920.8 -0.3 58
2018-09-13 12:00:00 21.2 3 Sudoeste 6 Oeste 0 921.3 0.3 66
2018-09-13 11:00:00 18.5 3 Noroeste 6 Noroeste 0 921.3 0.7 76
2018-09-13 10:00:00 16.1 3 Sudeste 5 Sudeste 0 921.1 0.5 80
2018-09-13 09:00:00 13.1 0 Calma 7 Sur 0 921 0.4 91
2018-09-13 08:00:00 11.2 2 Norte 5 Norte 0 920.6 -0.2 95
2018-09-13 07:00:00 11.6 2 Sudeste 4 Sur 0 920.6 -0.4 95
2018-09-13 06:00:00 12.1 0 Calma 3 Nordeste 0 920.6 -0.7 94
2018-09-13 05:00:00 12.5 0 Calma 5 Sudoeste 0 920.8 -0.9 94
2018-09-13 04:00:00 13.1 0 Calma 3 Norte 0 921 -1.1 92
2018-09-13 03:00:00 13.8 0 Calma 4 Norte 0 921.3 -0.9 90
2018-09-13 02:00:00 14.6 0 Calma 4 Este 0 921.7 -0.4 88
2018-09-13 01:00:00 15.4 0 Calma 5 Sudoeste 0 922.1 0.3 87
2018-09-13 00:00:00 16.4 4 Sudoeste 5 Oeste 0 922.2 1 86
2018-09-12 23:00:00 17.6 2 Sur 7 Noroeste 0 922.1 1.1 79
2018-09-12 22:00:00 18.4 4 Norte 8 Norte 0 921.8 1.2 74
2018-09-12 21:00:00 20.1 0 Calma 19 Norte 0 921.2 0.6 65
2018-09-12 20:00:00 21.5 12 Norte 35 Nordeste 0 921 0.2 61
2018-09-12 19:00:00 25.2 8 Norte 19 Norte 0 920.6 -0.5 41
2018-09-12 18:00:00 26.1 8 Noroeste 24 Norte 0 920.6 -1.4 36
2018-09-12 17:00:00 26.2 7 Norte 18 Norte 0 920.8 -1.9 43
2018-09-12 16:00:00 24.5 5 Norte 19 Noroeste 0 921.1 -2.1 49
2018-09-12 15:00:00 25.6 8 Oeste 27 Noroeste 0 922 -1.5 46
2018-09-12 14:00:00 23.9 4 Sur 12 Norte 0 922.7 -0.7 54
2018-09-12 13:00:00 22.3 5 Norte 14 Nordeste 0 923.2 0 59
2018-09-12 12:00:00 20.8 3 Norte 13 Norte 0 923.5 0.5 67
2018-09-12 11:00:00 19.1 3 Sudeste 9 Sudoeste 0 923.4 0.7 72
2018-09-12 10:00:00 17.7 4 Sudeste 10 Sudeste 0 923.2 0.2 80
2018-09-12 09:00:00 15.2 2 Norte 13 Sur 0 923 0.3 93
2018-09-12 08:00:00 14.6 6 Sur 19 Este 0.8 922.7 0.2 94
2018-09-12 07:00:00 14.7 11 Nordeste 37 Oeste 0.8 923 0 91
2018-09-12 06:00:00 15.5 0 Calma 8 Este 0.6 922.7 -0.3 96
2018-09-12 05:00:00 15.9 3 Sudeste 8 Sudeste 0 922.5 -0.9 93
2018-09-12 04:00:00 16 3 Nordeste 11 Sur 1 923 -0.5 95
2018-09-12 03:00:00 16.3 0 Calma 9 Sudeste 0 923 -0.4 90
2018-09-12 02:00:00 16.3 5 Sudeste 8 Este 0 923.4 -0.3 91
2018-09-12 01:00:00 16.9 3 Sur 9 Este 0 923.5 0.2 90
2018-09-12 00:00:00 17.3 4 Sur 12 Sudeste 0 923.4 0.5 86
2018-09-11 23:00:00 18 6 Sur 15 Sur 0.2 923.7 1.1 82
2018-09-11 22:00:00 18.6 8 Este 10 Este 0.6 923.3 1.2 83
2018-09-11 21:00:00 19.6 5 Este 20 Este 0 922.9 0.3 73
2018-09-11 20:00:00 20.8 12 Nordeste 25 Este 0 922.6 -0.6 66
2018-09-11 19:00:00 21 6 Nordeste 11 Norte 0 922.1 -1.5 69
2018-09-11 18:00:00 23 5 Noroeste 17 Noroeste 0 922.6 -1.4 63
2018-09-11 17:00:00 21.5 7 Norte 17 Noroeste 0.2 923.2 -1.2 74
2018-09-11 16:00:00 18.9 5 Noroeste 14 Norte 0 923.6 -1.2 81
2018-09-11 15:00:00 18.7 6 Norte 17 Noroeste 0.2 924 -0.8 81
2018-09-11 14:00:00 19.1 3 Noroeste 15 Norte 0 924.4 -0.4 81
2018-09-11 13:00:00 18.5 6 Norte 12 Norte 0 924.8 0.1 81
2018-09-11 12:00:00 18.5 4 Noroeste 13 Norte 0 924.8 0.1 76
2018-09-11 11:00:00 18.9 3 Noroeste 6 Norte 0 924.8 0.4 68
2018-09-11 10:00:00 16.8 3 Noroeste 6 Noroeste 0 924.7 0.4 79
2018-09-11 09:00:00 13.3 2 Oeste 3 Oeste 0 924.7 0.6 89
2018-09-11 08:00:00 11.8 2 Oeste 9 Sudeste 0 924.4 0.1 93
2018-09-11 07:00:00 12 7 Sudeste 9 Sudeste 0 924.3 0.1 93
2018-09-11 06:00:00 11.9 0 Calma 4 Nordeste 0 924.1 -0.2 92
2018-09-11 05:00:00 12.3 0 Calma 7 Sudeste 0 924.3 -0.1 90
2018-09-11 04:00:00 13 0 Calma 4 Sur 0 924.2 -0.4 91
2018-09-11 03:00:00 13.8 4 Sur 6 Sudeste 0 924.3 -0.1 88
2018-09-11 02:00:00 14.6 2 Noroeste 10 Sudeste 0 924.4 0 87
2018-09-11 01:00:00 15.5 7 Sudeste 9 Sudeste 0 924.6 0.7 82
2018-09-11 00:00:00 16.2 3 Sur 8 Sudoeste 0 924.4 1 80
2018-09-10 23:00:00 17.2 3 Sudoeste 8 Sudoeste 0 924.4 1.5 78
2018-09-10 22:00:00 18.3 5 Este 7 Nordeste 0 923.9 1.2 74
2018-09-10 21:00:00 20.3 5 Este 19 Este 0 923.4 0.9 64
2018-09-10 20:00:00 22.4 13 Este 24 Este 0 922.9 0.2 57
2018-09-10 19:00:00 22.9 10 Nordeste 26 Este 0 922.7 -0.2 52
2018-09-10 18:00:00 24.5 15 Este 25 Este 0 922.5 -0.9 49
2018-09-10 17:00:00 23.4 9 Nordeste 20 Este 0 922.7 -1.2 53
2018-09-10 16:00:00 24.5 3 Oeste 12 Noroeste 0 922.9 -1.4 51
2018-09-10 15:00:00 23.5 4 Noroeste 16 Noroeste 0 923.4 -0.9 57
2018-09-10 14:00:00 21.6 6 Norte 13 Nordeste 0 923.9 -0.2 65
2018-09-10 13:00:00 19.9 4 Noroeste 11 Noroeste 0 924.3 0.6 72
2018-09-10 12:00:00 19.2 6 Norte 16 Norte 0 924.3 1 73
2018-09-10 11:00:00 18.5 8 Norte 27 Norte 0 924.1 1.2 77
2018-09-10 10:00:00 16.4 13 Norte 28 Norte 0 923.7 1.5 84
2018-09-10 09:00:00 16.1 8 Norte 16 Norte 0 923.3 1.5 85
2018-09-10 08:00:00 15.8 6 Norte 19 Norte 0 922.9 0.9 86
2018-09-10 07:00:00 15.7 6 Norte 20 Norte 0 922.2 0.2 87
2018-09-10 06:00:00 16 6 Norte 17 Norte 0 921.8 0 86
2018-09-10 05:00:00 16 5 Norte 20 Norte 0 922 0.1 87
2018-09-10 04:00:00 15.9 5 Norte 18 Norte 0 922 0.1 87
2018-09-10 03:00:00 16.6 5 Norte 14 Noroeste 0 921.8 -0.5 85
2018-09-10 02:00:00 16.6 6 Sur 18 Norte 0 921.9 -0.1 79
2018-09-10 01:00:00 16.7 6 Norte 18 Sudeste 0 921.9 0.2 79
2018-09-10 00:00:00 16.9 9 Sudeste 14 Sudeste 0 922.3 2 76
2018-09-09 23:00:00 17.5 4 Sur 19 Noroeste 0 922 2.1 76
2018-09-09 22:00:00 18.2 8 Noroeste 19 Oeste 0.2 921.7 2.5 73
2018-09-09 21:00:00 19.5 3 Sur 15 Nordeste 0 920.3 1.6 65
2018-09-09 20:00:00 20.1 8 Nordeste 33 Este 0 919.9 1.4 51
2018-09-09 19:00:00 20.6 20 Este 42 Este 0 919.2 0.3 55
2018-09-09 18:00:00 23.9 9 Nordeste 20 Nordeste 0 918.7 -0.7 52
2018-09-09 17:00:00 23.9 8 Nordeste 23 Norte 0 918.5 -1.3 50
2018-09-09 16:00:00 24.4 5 Norte 13 Norte 0 918.9 -1.4 49
2018-09-09 15:00:00 26.5 4 Noroeste 15 Oeste 0 919.4 -1.3 39
2018-09-09 14:00:00 25.5 6 Oeste 12 Oeste 0 919.8 -1.1 47
2018-09-09 13:00:00 24.2 4 Oeste 11 Sudoeste 0 920.3 -0.3 54
2018-09-09 12:00:00 22 4 Oeste 8 Oeste 0 920.7 -0.1 60
2018-09-09 11:00:00 20.1 3 Sudoeste 7 Oeste 0 920.9 0.5 72
2018-09-09 10:00:00 18.1 2 Este 5 Nordeste 0 920.6 0.7 80
2018-09-09 09:00:00 14.6 0 Calma 4 Sudoeste 0 920.8 1.2 94
2018-09-09 08:00:00 14 4 Sudoeste 8 Noroeste 0 920.4 1 94
2018-09-09 07:00:00 14.2 3 Norte 8 Sudeste 0 919.9 0.6 92
2018-09-09 06:00:00 15.2 4 Este 9 Este 0 919.6 -0.1 89
2018-09-09 05:00:00 16.3 0 Calma 7 Sur 0 919.4 -0.3 90
2018-09-09 04:00:00 17.8 5 Sur 13 Sudeste 0 919.3 -0.2 85
2018-09-09 03:00:00 18.5 3 Oeste 21 Sur 0 919.7 0.5 81
2018-09-09 02:00:00 19.1 9 Sur 19 Sudoeste 0 919.7 0.7 76
2018-09-09 01:00:00 19.8 8 Sudoeste 15 Sudoeste 0 919.5 0.7 71
2018-09-09 00:00:00 19.9 6 Sudeste 12 Sur 0 919.2 1.2 70
2018-09-08 23:00:00 20.4 5 Sudeste 10 Sur 0 919 1.3 66
2018-09-08 22:00:00 20.9 4 Sur 9 Sur 0 918.8 1.1 61
2018-09-08 21:00:00 21.9 4 Sur 15 Sur 0 918 0.4 59
2018-09-08 20:00:00 23.1 8 Sur 23 Sur 0 917.7 0 50
2018-09-08 19:00:00 23.9 12 Sur 28 Sur 0 917.7 -0.3 45
2018-09-08 18:00:00 24.7 14 Sur 33 Sur 0 917.6 -0.9 43
2018-09-08 17:00:00 26.3 12 Sur 31 Sur 0 917.7 -1.4 42
2018-09-08 16:00:00 24.9 11 Sudoeste 28 Sudoeste 0 918 -1.2 48
2018-09-08 15:00:00 24.7 17 Sur 38 Sudoeste 0 918.5 -0.5 43
2018-09-08 14:00:00 22.9 16 Sur 40 Sur 0 919.1 0.2 54
2018-09-08 13:00:00 23.9 15 Sur 35 Sudoeste 0 919.2 0.4 50
2018-09-08 12:00:00 21.5 17 Sudoeste 29 Sudoeste 0 919 0.1 61
2018-09-08 11:00:00 20 4 Sudeste 12 Sudeste 0 918.9 1 70
2018-09-08 10:00:00 17 7 Sur 10 Sudeste 0 918.8 0.8 84
2018-09-08 09:00:00 14.9 8 Sudeste 14 Sur 0 918.9 0.8 90
2018-09-08 08:00:00 12.3 4 Sur 9 Sur 0 917.9 -0.2 96
2018-09-08 07:00:00 12.6 3 Sur 7 Este 0 918 -0.4 94
2018-09-08 06:00:00 13.2 3 Sudoeste 5 Oeste 0 918.1 -0.4 95
2018-09-08 05:00:00 14.2 2 Oeste 8 Sur 0 918.1 -0.4 90
2018-09-08 04:00:00 15.1 5 Sur 9 Sudeste 0 918.4 0.4 91
2018-09-08 03:00:00 15.5 3 Oeste 7 Este 0 918.5 0.4 91
2018-09-08 02:00:00 16.2 0 Calma 7 Sudeste 0 918.5 0.6 89
2018-09-08 01:00:00 16.8 5 Sudeste 8 Sudeste 0 918 0.2 86
2018-09-08 00:00:00 17.7 3 Sudoeste 9 Sur 0 918.1 1 85
2018-09-07 23:00:00 18.7 5 Sur 14 Sudeste 0 917.9 1.6 77
2018-09-07 22:00:00 19 6 Sudeste 10 Sudeste 0 917.8 1.9 71
2018-09-07 21:00:00 19.1 4 Noroeste 14 Este 0 917.1 1.1 75
2018-09-07 20:00:00 20.4 11 Este 18 Este 0 916.3 0.8 66
2018-09-07 19:00:00 19.8 4 Norte 12 Norte 0 915.9 0.4 78
2018-09-07 18:00:00 19.7 6 Norte 26 Este 6 916 0.1 84
2018-09-07 17:00:00 23.3 12 Nordeste 29 Este 0 915.5 -1 47
2018-09-07 16:00:00 26.5 7 Norte 17 Norte 0 915.5 -1.6 39
2018-09-07 15:00:00 25.8 4 Sudoeste 12 Noroeste 0 915.9 -1.9 43
2018-09-07 14:00:00 24 5 Oeste 12 Oeste 0 916.5 -1.4 46
2018-09-07 13:00:00 22.3 3 Oeste 12 Este 0 917.1 -0.8 51
2018-09-07 12:00:00 20.3 6 Sudeste 14 Este 0 917.8 -0.1 56
2018-09-07 11:00:00 17.7 4 Norte 8 Norte 0 917.9 0.3 66
2018-09-07 10:00:00 15.4 0 Calma 5 Sudeste 0 917.9 0.5 77
2018-09-07 09:00:00 12.3 4 Sudeste 5 Sudeste 0 917.9 0.7 87
2018-09-07 08:00:00 9.8 0 Calma 4 Norte 0 917.6 0.6 93
2018-09-07 07:00:00 10.5 0 Calma 5 Sur 0 917.4 0.4 92
2018-09-07 06:00:00 11.2 3 Sur 8 Sur 0 917.2 0 90
2018-09-07 05:00:00 11.7 3 Sur 5 Sudeste 0 917 -0.7 88
2018-09-07 04:00:00 12.3 3 Noroeste 5 Noroeste 0 917 -0.6 88
2018-09-07 03:00:00 13.2 0 Calma 8 Norte 0 917.2 -0.2 84
2018-09-07 02:00:00 14.1 3 Norte 10 Norte 0 917.7 0.7 82
2018-09-07 01:00:00 14.8 5 Norte 16 Norte 0 917.6 0.8 78
2018-09-07 00:00:00 15.4 6 Norte 21 Nordeste 0 917.4 1.4 75
2018-09-06 23:00:00 16.3 8 Norte 17 Norte 0 917 1.7 71
2018-09-06 22:00:00 16.8 5 Norte 11 Norte 0 916.8 1.6 77
2018-09-06 21:00:00 17.8 3 Norte 20 Norte 0 916 1.3 75
2018-09-06 20:00:00 19.4 7 Norte 27 Norte 0 915.3 0.6 62
2018-09-06 19:00:00 20.8 8 Norte 24 Norte 0 915.2 0.8 59
2018-09-06 18:00:00 20.6 13 Nordeste 26 Este 0 914.7 -0.2 59
2018-09-06 17:00:00 21.5 7 Noroeste 25 Nordeste 0 914.7 -0.3 57
2018-09-06 16:00:00 22.4 7 Norte 23 Norte 0 914.4 -1 54
2018-09-06 15:00:00 22.4 8 Norte 27 Nordeste 0 914.9 -0.9 53
2018-09-06 14:00:00 21.8 12 Nordeste 24 Nordeste 0 915 -0.8 55
2018-09-06 13:00:00 20.9 9 Norte 24 Nordeste 0 915.4 -0.3 61
2018-09-06 12:00:00 19 5 Nordeste 14 Norte 0 915.8 0 67
2018-09-06 11:00:00 17.5 4 Norte 15 Nordeste 0 915.8 0.4 75
2018-09-06 10:00:00 16.4 3 Norte 6 Oeste 0 915.7 0.8 82
2018-09-06 09:00:00 13.5 0 Calma 3 Sudeste 0 915.8 1.2 90
2018-09-06 08:00:00 12.1 2 Este 14 Este 0 915.4 0.7 93
2018-09-06 07:00:00 12.9 5 Sudeste 8 Sudeste 0 914.9 -0.1 92
2018-09-06 06:00:00 13.8 4 Norte 10 Norte 0 914.6 -0.5 93
2018-09-06 05:00:00 13.5 4 Norte 8 Norte 0 914.7 -0.5 94
2018-09-06 04:00:00 14 3 Norte 7 Norte 0 915 -0.3 91
2018-09-06 03:00:00 14.4 4 Norte 10 Nordeste 0 915.1 -0.2 88
2018-09-06 02:00:00 14.8 2 Sur 5 Sudeste 0 915.2 -0.1 86
2018-09-06 01:00:00 14.9 3 Este 12 Norte 0 915.3 0.8 83
2018-09-06 00:00:00 15.6 5 Norte 15 Norte 0 915.3 2 81
2018-09-05 23:00:00 16.2 8 Norte 30 Norte 0 915.3 2.5 85
2018-09-05 22:00:00 18.5 7 Norte 25 Este 0 914.5 1.6 76
2018-09-05 21:00:00 20.2 13 Este 23 Este 0 913.3 0.4 68
2018-09-05 20:00:00 21.8 16 Este 32 Este 0 912.8 -0.1 59
2018-09-05 19:00:00 22.1 14 Este 25 Este 0 912.9 -0.4 60
2018-09-05 18:00:00 23 15 Nordeste 20 Nordeste 0 912.9 -0.8 60
2018-09-05 17:00:00 23.3 6 Norte 16 Nordeste 0 912.9 -1.3 56
2018-09-05 16:00:00 24.5 8 Norte 27 Norte 0 913.3 -1.5 54
2018-09-05 15:00:00 21.1 10 Norte 35 Nordeste 1 913.7 -1.7 67
2018-09-05 14:00:00 25.7 10 Sudoeste 26 Sudeste 0 914.2 -1.5 42
2018-09-05 13:00:00 26.9 8 Sur 16 Sudeste 0 914.8 -1 42
2018-09-05 12:00:00 24.5 3 Sur 10 Sur 0 915.4 -0.3 51
2018-09-05 11:00:00 22 5 Sudeste 10 Sur 0 915.7 0.4 65
2018-09-05 10:00:00 18.8 4 Sur 7 Sur 0 915.8 0.9 84
2018-09-05 09:00:00 15.9 0 Calma 3 Nordeste 0 915.7 0.9 88
2018-09-05 08:00:00 14.1 0 Calma 5 Sudoeste 0 915.3 0.4 91
2018-09-05 07:00:00 14.8 3 Sur 5 Sudeste 0 914.9 0 90
2018-09-05 06:00:00 15.5 0 Calma 8 Norte 0 914.8 -0.3 90
2018-09-05 05:00:00 15.9 3 Norte 8 Norte 0 914.9 -0.2 88
2018-09-05 04:00:00 16.5 3 Norte 8 Norte 0 914.9 0.2 86
2018-09-05 03:00:00 16.4 4 Norte 9 Noroeste 0 915.1 0.6 83
2018-09-05 02:00:00 17.1 5 Norte 11 Noroeste 0 915.1 0.7 80
2018-09-05 01:00:00 16.6 3 Noroeste 15 Norte 0 914.7 0.8 83
2018-09-05 00:00:00 18.2 3 Sudeste 14 Este 0 914.5 1.4 74
2018-09-04 23:00:00 19.2 12 Este 17 Este 0 914.4 1.5 71
2018-09-04 22:00:00 20.1 10 Sudeste 32 Sudeste 0 913.9 1.2 65
2018-09-04 21:00:00 21.3 24 Este 32 Este 0 913.1 0.2 57
2018-09-04 20:00:00 21.9 18 Este 33 Este 0 912.9 0.3 58
2018-09-04 19:00:00 23.6 19 Este 28 Este 0 912.7 -0.2 53
2018-09-04 18:00:00 22.1 8 Norte 30 Nordeste 0 912.9 0.2 56
2018-09-04 17:00:00 23.4 20 Este 36 Este 0.2 912.6 -0.4 49
2018-09-04 16:00:00 23.9 14 Sudoeste 34 Sudoeste 0.2 912.9 -0.7 49
2018-09-04 15:00:00 28.2 13 Sudeste 19 Este 0 912.7 -1.4 38
2018-09-04 14:00:00 28.2 4 Noroeste 10 Oeste 0 913 -1.4 39
2018-09-04 13:00:00 26.3 3 Noroeste 12 Sudoeste 0 913.6 -1 46
2018-09-04 12:00:00 23.9 5 Sudoeste 12 Sudoeste 0 914.1 -0.5 55
2018-09-04 11:00:00 21.2 4 Sur 8 Sudoeste 0 914.4 -0.1 59
2018-09-04 10:00:00 17.8 3 Sur 7 Sudoeste 0 914.6 0.5 71
2018-09-04 09:00:00 15.5 3 Sur 5 Sur 0 914.6 0.4 79
2018-09-04 08:00:00 12.7 0 Calma 4 Oeste 0 914.5 0.3 87
2018-09-04 07:00:00 13 2 Noroeste 6 Noroeste 0 914.1 -0.1 87
2018-09-04 06:00:00 13.5 3 Norte 9 Noroeste 0 914.2 -0.1 85
2018-09-04 05:00:00 14.5 3 Noroeste 6 Noroeste 0 914.2 0.1 78
2018-09-04 04:00:00 15 2 Norte 9 Sudeste 0 914.2 0.5 77
2018-09-04 03:00:00 16.8 0 Calma 9 Nordeste 0 914.3 0.5 69
2018-09-04 02:00:00 17.2 5 Norte 19 Sur 0 914.1 0.1 68
2018-09-04 01:00:00 17.9 4 Sudeste 17 Sudoeste 0 913.7 -0.6 63
2018-09-04 00:00:00 17.8 5 Sudeste 13 Sudeste 0 913.8 0.2 67
2018-09-03 23:00:00 18.6 8 Sur 18 Sudoeste 0 914 2.2 66
2018-09-03 22:00:00 19.4 10 Sudoeste 35 Sudoeste 0 914.3 2.8 65
2018-09-03 21:00:00 20.8 18 Sudoeste 56 Sudoeste 0 913.6 2 58
2018-09-03 20:00:00 23.5 8 Nordeste 36 Sur 0 911.8 -0.1 43
2018-09-03 19:00:00 27.4 17 Sur 35 Sur 0 911.5 -1.1 45
2018-09-03 18:00:00 30.1 8 Sur 24 Sudoeste 0 911.6 -1.5 37
2018-09-03 17:00:00 30.4 18 Sudeste 28 Sudeste 0 911.9 -2.1 38
2018-09-03 16:00:00 30.5 7 Sur 21 Sur 0 912.6 -2.2 39
2018-09-03 15:00:00 28.9 10 Sur 19 Sudoeste 0 913.1 -2.2 41
2018-09-03 14:00:00 26.9 7 Sur 15 Sur 0 914 -1.8 47
2018-09-03 13:00:00 22.8 9 Sudeste 15 Sur 0 914.8 0.1 69
2018-09-03 12:00:00 20.8 11 Sudeste 20 Este 1.6 915.3 0.4 86
2018-09-03 11:00:00 22.4 6 Oeste 16 Sudoeste 0 915.8 1 80
2018-09-03 10:00:00 21.6 7 Sur 16 Sudeste 0 914.7 -0.4 86
2018-09-03 09:00:00 19.3 3 Sudoeste 24 Sudeste 0 914.9 0.9 92
2018-09-03 08:00:00 19.2 17 Este 26 Este 1.8 914.8 -0.6 92
2018-09-03 07:00:00 18.9 6 Norte 18 Sudoeste 0 915.1 0.1 91
2018-09-03 06:00:00 19.3 8 Sur 25 Este 0.4 914 -1.4 88
2018-09-03 05:00:00 19 3 Nordeste 15 Noroeste 0 915.4 -0.3 85
2018-09-03 04:00:00 18.7 4 Sudeste 10 Sudeste 0 915 -0.7 67
2018-09-03 03:00:00 19.3 6 Sudeste 12 Sur 0 915.4 -0.5 68
2018-09-03 02:00:00 20.4 6 Sudeste 13 Este 0 915.7 0 58
2018-09-03 01:00:00 22 8 Sudeste 12 Este 0 915.7 0 52
2018-09-03 00:00:00 23.2 3 Noroeste 23 Este 0 915.9 0.8 51
2018-09-02 23:00:00 23.2 10 Este 21 Este 0 915.7 0.9 49
2018-09-02 22:00:00 23.9 5 Noroeste 11 Este 0 915.7 1 48
2018-09-02 21:00:00 26.1 5 Nordeste 17 Nordeste 0 915.1 0.3 40
2018-09-02 20:00:00 27.6 11 Este 30 Sudeste 0 914.8 -0.2 36
2018-09-02 19:00:00 28.6 19 Este 27 Sudeste 0 914.7 -0.7 32
2018-09-02 18:00:00 30.7 4 Noroeste 14 Norte 0 914.8 -1.1 30
2018-09-02 17:00:00 31.3 3 Noroeste 11 Norte 0 915 -1.7 30
2018-09-02 16:00:00 30 6 Noroeste 17 Norte 0 915.4 -2 36
2018-09-02 15:00:00 31.3 7 Noroeste 17 Noroeste 0 915.9 -2 31
2018-09-02 14:00:00 29.4 3 Oeste 9 Norte 0 916.7 -1.8 38
2018-09-02 13:00:00 27.2 4 Oeste 10 Sudoeste 0 917.4 -1.1 44
2018-09-02 12:00:00 25 4 Sudoeste 8 Sudoeste 0 917.9 -0.6 56
2018-09-02 11:00:00 22 4 Sur 9 Sudoeste 0 918.5 0.2 69
2018-09-02 10:00:00 18.4 4 Sudoeste 7 Sudoeste 0 918.5 0.4 86
2018-09-02 09:00:00 15.7 3 Sudoeste 7 Nordeste 0 918.5 0.1 91
2018-09-02 08:00:00 13.1 3 Sudoeste 5 Oeste 0 918.3 -0.2 83
2018-09-02 07:00:00 13.3 2 Norte 7 Sur 0 918.1 -0.8 82
2018-09-02 06:00:00 14.6 5 Sudeste 8 Sur 0 918.4 -0.7 74
2018-09-02 05:00:00 14.4 5 Sudeste 8 Sudeste 0 918.5 -0.9 75
2018-09-02 04:00:00 14.6 3 Norte 5 Sudoeste 0 918.9 -0.4 74
2018-09-02 03:00:00 15.6 3 Nordeste 8 Sur 0 919.1 -0.1 70
2018-09-02 02:00:00 16.4 4 Sur 8 Sur 0 919.4 0.5 65
2018-09-02 01:00:00 17.6 2 Norte 5 Norte 0 919.3 0.6 62
2018-09-02 00:00:00 19.2 2 Sudeste 8 Sur 0 919.2 1.2 54
2018-09-01 23:00:00 20.5 3 Sudeste 6 Sudeste 0 918.9 1.3 49
2018-09-01 22:00:00 22.2 3 Sudoeste 10 Nordeste 0 918.7 1.1 46
2018-09-01 21:00:00 25 9 Nordeste 16 Nordeste 0 918 0.4 35
2018-09-01 20:00:00 27.2 9 Nordeste 22 Nordeste 0 917.6 -0.2 32
2018-09-01 19:00:00 28.8 8 Norte 18 Norte 0 917.6 -0.7 28
2018-09-01 18:00:00 29.9 7 Norte 21 Este 0 917.6 -1.3 29
2018-09-01 17:00:00 30.2 6 Noroeste 18 Noroeste 0 917.8 -1.5 30
2018-09-01 16:00:00 30.1 6 Noroeste 13 Noroeste 0 918.3 -1.6 31
2018-09-01 15:00:00 29.1 6 Noroeste 15 Noroeste 0 918.9 -1.5 35
2018-09-01 14:00:00 28 6 Noroeste 14 Oeste 0 919.3 -1.4 40
2018-09-01 13:00:00 26 5 Noroeste 12 Noroeste 0 919.9 -0.7 43
2018-09-01 12:00:00 23.5 5 Noroeste 10 Oeste 0 920.4 0 51
2018-09-01 11:00:00 21.3 3 Noroeste 6 Sur 0 920.7 0.5 59
2018-09-01 10:00:00 18.7 3 Sur 8 Sudoeste 0 920.6 0.6 69
2018-09-01 09:00:00 15.6 2 Sudeste 4 Sudeste 0 920.4 0.5 80
2018-09-01 08:00:00 12.5 0 Calma 6 Sudeste 0 920.2 -0.1 90
2018-09-01 07:00:00 12.7 3 Sudeste 7 Sudeste 0 920 -0.5 89
2018-09-01 06:00:00 13.1 0 Calma 4 Nordeste 0 919.9 -0.6 88
2018-09-01 05:00:00 13.8 2 Nordeste 8 Sudeste 0 920.3 -0.4 86
2018-09-01 04:00:00 14.5 3 Sudeste 5 Sudeste 0 920.5 -0.1 82
2018-09-01 03:00:00 15 3 Norte 6 Noroeste 0 920.5 0.3 81
2018-09-01 02:00:00 16.2 4 Noroeste 8 Norte 0 920.7 0.7 78
2018-09-01 01:00:00 17.2 4 Norte 8 Norte 0 920.6 0.9 71
2018-09-01 00:00:00 18.3 5 Norte 15 Nordeste 0 920.2 1 67
2018-08-31 23:00:00 19.9 7 Norte 23 Nordeste 0 920 1.5 60
2018-08-31 22:00:00 21.2 10 Norte 19 Norte 0 919.7 1.5 52
2018-08-31 21:00:00 23.1 8 Nordeste 19 Nordeste 0 919.2 1 43
2018-08-31 20:00:00 25 11 Norte 23 Norte 0 918.5 0.2 39
2018-08-31 19:00:00 26.5 8 Norte 22 Norte 0 918.2 -0.2 36
2018-08-31 18:00:00 27 12 Norte 29 Norte 0 918.2 -0.3 35
2018-08-31 17:00:00 27.9 8 Norte 24 Nordeste 0 918.3 -0.7 38
2018-08-31 16:00:00 28.2 8 Norte 24 Norte 0 918.4 -1 40
2018-08-31 15:00:00 27.6 10 Norte 27 Norte 0 918.5 -1.2 43
2018-08-31 14:00:00 27.1 7 Noroeste 15 Noroeste 0 919 -1 48
2018-08-31 13:00:00 24.8 4 Oeste 10 Sudoeste 0 919.4 -0.5 62
2018-08-31 12:00:00 23.2 4 Sudoeste 14 Sudoeste 0 919.7 -0.2 64
2018-08-31 11:00:00 20.9 4 Sudoeste 8 Sudoeste 0 920 0.6 70
2018-08-31 10:00:00 17.9 4 Noroeste 12 Norte 0 919.9 0.7 73
2018-08-31 09:00:00 16.8 4 Norte 10 Noroeste 0 919.9 0.7 76
2018-08-31 08:00:00 16.4 4 Norte 9 Norte 0 919.4 0 76
2018-08-31 07:00:00 16.4 4 Norte 8 Norte 0 919.2 -0.4 76
2018-08-31 06:00:00 16.7 5 Norte 10 Norte 0 919.2 -0.7 75
2018-08-31 05:00:00 16.6 4 Norte 10 Norte 0 919.4 -0.7 74
2018-08-31 04:00:00 16.7 3 Norte 8 Norte 0 919.6 -0.6 74
2018-08-31 03:00:00 16.7 3 Norte 7 Noroeste 0 919.9 -0.3 78
2018-08-31 02:00:00 17.1 3 Norte 12 Norte 0 920.1 0 76
2018-08-31 01:00:00 18.3 3 Noroeste 12 Norte 0 920.2 0.4 72
2018-08-31 00:00:00 19.9 5 Norte 13 Nordeste 0 920.2 1.7 65
2018-08-30 23:00:00 20.6 3 Noroeste 13 Nordeste 0 920.1 1.7 66
2018-08-30 22:00:00 21.3 3 Norte 21 Este 0 919.8 1.4 71
2018-08-30 21:00:00 22.1 17 Este 24 Este 0 918.5 -0.6 67
2018-08-30 20:00:00 23.6 13 Este 21 Este 0 918.4 -0.7 64
2018-08-30 19:00:00 23.7 15 Este 28 Este 0 918.4 0 61
2018-08-30 18:00:00 20.8 22 Este 38 Este 0.4 919.1 0 72
2018-08-30 17:00:00 23.4 12 Norte 37 Norte 0 919.1 -0.4 55
2018-08-30 16:00:00 29 6 Sudoeste 19 Sur 0 918.4 -1.6 40
2018-08-30 15:00:00 29.2 6 Oeste 15 Oeste 0 919.1 -1.5 39
2018-08-30 14:00:00 27.7 4 Sudoeste 13 Oeste 0 919.5 -1.3 42
2018-08-30 13:00:00 25.8 7 Sudoeste 14 Sudoeste 0 920 -0.8 50
2018-08-30 12:00:00 23.5 3 Sur 10 Sudoeste 0 920.6 -0.2 58
2018-08-30 11:00:00 21.1 3 Oeste 9 Sudoeste 0 920.8 0.3 66
2018-08-30 10:00:00 18 3 Noroeste 5 Oeste 0 920.8 0.4 77
2018-08-30 09:00:00 15.7 2 Noroeste 6 Nordeste 0 920.8 0 83
2018-08-30 08:00:00 13.6 3 Norte 4 Norte 0 920.5 -0.2 91
2018-08-30 07:00:00 14.2 0 Calma 6 Noroeste 0 920.4 -0.5 88
2018-08-30 06:00:00 14.9 0 Calma 4 Norte 0 920.8 -0.2 84
2018-08-30 05:00:00 15.6 3 Norte 9 Norte 0 920.7 -0.3 83
2018-08-30 04:00:00 15.9 3 Norte 7 Norte 0 920.9 -0.1 83
2018-08-30 03:00:00 16.5 4 Norte 10 Noroeste 0 921 0.1 80
2018-08-30 02:00:00 17 5 Norte 17 Nordeste 0 921 0.5 79
2018-08-30 01:00:00 17.9 6 Norte 19 Norte 0 921 0.9 75
2018-08-30 00:00:00 18.8 6 Norte 21 Norte 0 920.9 1.5 71
2018-08-29 23:00:00 20 8 Norte 20 Norte 0 920.5 1.9 64
2018-08-29 22:00:00 21.1 5 Norte 22 Nordeste 0 920.1 2.3 60
2018-08-29 21:00:00 23 8 Norte 24 Norte 0 919.4 1.7 54
2018-08-29 20:00:00 24.9 11 Norte 31 Norte 0 918.6 1 45
2018-08-29 19:00:00 26.6 14 Nordeste 30 Norte 0 917.8 -0.1 41
2018-08-29 18:00:00 27.4 13 Norte 24 Nordeste 0 917.7 -0.4 38
2018-08-29 17:00:00 27.6 12 Nordeste 27 Norte 0 917.6 -0.7 38
2018-08-29 16:00:00 25.7 10 Norte 24 Norte 0 917.9 -0.8 43
2018-08-29 15:00:00 28 9 Norte 22 Norte 0 918.1 -0.8 41
2018-08-29 14:00:00 26.9 9 Norte 21 Noroeste 0 918.3 -0.5 42
2018-08-29 13:00:00 26.2 8 Noroeste 22 Noroeste 0 918.7 0.2 47
2018-08-29 12:00:00 24.9 5 Noroeste 9 Norte 0 918.9 0.6 56
2018-08-29 11:00:00 22.5 3 Noroeste 7 Norte 0 918.8 1 63
2018-08-29 10:00:00 19.5 3 Sudoeste 6 Nordeste 0 918.5 1 73
2018-08-29 09:00:00 16.2 2 Norte 6 Noroeste 0 918.3 1 84
2018-08-29 08:00:00 14.6 2 Oeste 8 Sudeste 0 917.8 0.7 88
2018-08-29 07:00:00 15 3 Sudeste 11 Sudeste 0 917.5 0.2 86
2018-08-29 06:00:00 15.3 5 Sudeste 10 Sudeste 0 917.3 0 84
2018-08-29 05:00:00 15.6 4 Sur 8 Sudeste 0 917.1 -0.3 80
2018-08-29 04:00:00 16.2 3 Nordeste 11 Este 0 917.3 -0.3 80
2018-08-29 03:00:00 17.1 3 Sudeste 13 Sudeste 0 917.3 0.1 73
2018-08-29 02:00:00 18.3 2 Sudeste 27 Sudeste 0 917.4 -0.1 67
2018-08-29 01:00:00 19.4 8 Sudoeste 38 Sudeste 0 917.6 1.8 60
2018-08-29 00:00:00 19.2 20 Sudeste 42 Sur 0.2 917.2 0.3 62
2018-08-28 23:00:00 20.2 23 Sudoeste 48 Sudoeste 0.8 917.5 1.9 65
2018-08-28 22:00:00 19.7 6 Norte 28 Sur 1 915.8 1.2 75
2018-08-28 21:00:00 22.7 12 Sudoeste 48 Sur 0 916.9 2.1 57
2018-08-28 20:00:00 25.7 11 Oeste 40 Sudoeste 0 915.6 0.5 51
2018-08-28 19:00:00 31.6 16 Sudoeste 44 Sudoeste 0 914.6 -1.4 33
2018-08-28 18:00:00 32.3 16 Sudoeste 34 Oeste 0 914.8 -2 28
2018-08-28 17:00:00 32.9 10 Oeste 29 Oeste 0 915.1 -2.3 25
2018-08-28 16:00:00 32.7 11 Sur 30 Sur 0 916 -1.8 26
2018-08-28 15:00:00 32.3 14 Sudoeste 28 Sudoeste 0 916.8 -1 28
2018-08-28 14:00:00 29.7 9 Sudoeste 20 Sudoeste 0 917.4 -0.7 39
2018-08-28 13:00:00 29.3 9 Sudoeste 19 Sudoeste 0 917.8 -0.1 36
2018-08-28 12:00:00 26.9 3 Sudoeste 6 Nordeste 0 917.8 0 51
2018-08-28 11:00:00 24.6 4 Oeste 10 Sudeste 0 918.1 0.4 66
2018-08-28 10:00:00 22.1 5 Sudeste 12 Sudeste 0 917.9 0.3 74
2018-08-28 09:00:00 19.9 7 Sudeste 12 Sudeste 0 917.8 0.8 78
2018-08-28 08:00:00 17.8 3 Este 10 Sudeste 0 917.7 0.7 88
2018-08-28 07:00:00 18.4 5 Sur 9 Sudeste 0 917.6 0.3 84
2018-08-28 06:00:00 19 7 Sudeste 10 Sudeste 0 917 -0.7 86
2018-08-28 05:00:00 19.3 6 Sudeste 10 Sur 0 917 -0.7 79
2018-08-28 04:00:00 19.3 3 Sudeste 8 Este 0 917.3 -0.4 77
2018-08-28 03:00:00 20.5 3 Sur 10 Sudeste 0 917.7 -0.1 72
2018-08-28 02:00:00 21.6 5 Sudeste 18 Este 0 917.7 -0.1 59
2018-08-28 01:00:00 21.7 9 Sudeste 17 Este 0 917.7 0.4 50
2018-08-28 00:00:00 23.4 4 Sudoeste 12 Sudeste 0 917.8 1 44
2018-08-27 23:00:00 24.7 3 Sudoeste 18 Este 0 917.8 1.7 41
2018-08-27 22:00:00 25.2 4 Este 24 Este 0 917.3 1.7 40
2018-08-27 21:00:00 27.3 9 Nordeste 27 Este 0 916.8 1 36
2018-08-27 20:00:00 30.1 17 Este 29 Este 0 916.1 0.2 31
2018-08-27 19:00:00 34 7 Sudoeste 20 Sur 0 915.6 -0.8 21
2018-08-27 18:00:00 34.4 8 Sudeste 14 Sudeste 0 915.8 -1 19
2018-08-27 17:00:00 34.6 4 Sudoeste 17 Oeste 0 915.9 -1.1 19
2018-08-27 16:00:00 33.3 4 Oeste 17 Nordeste 0 916.4 -1.1 24
2018-08-27 15:00:00 32.4 4 Norte 17 Sudeste 0 916.8 -0.9 25
2018-08-27 14:00:00 31.8 7 Sudeste 13 Oeste 0 917 -0.9 24
2018-08-27 13:00:00 29.3 5 Sudoeste 12 Sudoeste 0 917.5 -0.4 35
2018-08-27 12:00:00 26.1 4 Oeste 7 Sudoeste 0 917.7 -0.1 49
2018-08-27 11:00:00 22.4 4 Oeste 10 Oeste 0 917.9 0.3 59
2018-08-27 10:00:00 19.5 5 Sur 11 Sudoeste 0 917.9 0.7 71
2018-08-27 09:00:00 15.6 0 Calma 5 Nordeste 0 917.8 0.8 77
2018-08-27 08:00:00 12.2 0 Calma 5 Nordeste 0 917.6 0.6 88
2018-08-27 07:00:00 12.4 3 Nordeste 9 Sudeste 0 917.2 0.2 86
2018-08-27 06:00:00 13.5 4 Sudeste 7 Sudeste 0 917 0 80
2018-08-27 05:00:00 13.6 3 Sudeste 7 Sur 0 917 -0.1 78
2018-08-27 04:00:00 14.5 3 Sudoeste 6 Sur 0 917 0 76
2018-08-27 03:00:00 15.2 0 Calma 5 Oeste 0 917 0.3 73
2018-08-27 02:00:00 16.1 3 Norte 6 Noroeste 0 917.1 0.6 70
2018-08-27 01:00:00 17.8 0 Calma 4 Norte 0 917 1.1 62
2018-08-27 00:00:00 19.1 4 Norte 9 Norte 0 916.7 1.7 56
2018-08-26 23:00:00 20.6 4 Norte 9 Noroeste 0 916.5 1.9 53
2018-08-26 22:00:00 22.9 2 Noroeste 24 Este 0 915.9 1.4 46
2018-08-26 21:00:00 24.8 18 Este 25 Este 0 915 0.6 40
2018-08-26 20:00:00 28.8 2 Noroeste 13 Norte 0 914.6 0 36
2018-08-26 19:00:00 29.2 6 Norte 18 Nordeste 0 914.5 -0.6 31
2018-08-26 18:00:00 30.2 6 Norte 18 Noroeste 0 914.4 -1.4 30
2018-08-26 17:00:00 29.8 6 Norte 24 Noroeste 0 914.6 -1.8 33
2018-08-26 16:00:00 29.8 11 Noroeste 25 Sudoeste 0 915.1 -1.7 31
2018-08-26 15:00:00 28.3 8 Noroeste 27 Norte 0 915.8 -1.7 37
2018-08-26 14:00:00 27.4 7 Noroeste 23 Sudoeste 0 916.4 -1.3 33
2018-08-26 13:00:00 24.6 3 Sudeste 12 Sudoeste 0 916.8 -0.7 46
2018-08-26 12:00:00 21.3 5 Este 12 Sudeste 0 917.5 -0.2 56
2018-08-26 11:00:00 18.4 3 Sudoeste 8 Sudeste 0 917.7 0.2 61
2018-08-26 10:00:00 15.7 3 Sur 10 Sudoeste 0 917.5 0.3 68
2018-08-26 09:00:00 13 0 Calma 4 Sudeste 0 917.7 0.6 78
2018-08-26 08:00:00 10.1 3 Sur 7 Sur 0 917.5 0.4 87
2018-08-26 07:00:00 10.3 2 Sudoeste 5 Sudoeste 0 917.2 -0.1 87
2018-08-26 06:00:00 10.8 3 Norte 6 Norte 0 917.1 -0.5 85
2018-08-26 05:00:00 11.4 3 Norte 6 Norte 0 917.1 -0.8 82
2018-08-26 04:00:00 11.8 3 Norte 8 Norte 0 917.3 -0.6 81
2018-08-26 03:00:00 11.7 3 Noroeste 7 Noroeste 0 917.6 -0.3 80
2018-08-26 02:00:00 12.8 3 Norte 7 Norte 0 917.9 0.2 75
2018-08-26 01:00:00 13.7 3 Noroeste 13 Norte 0 917.9 1 71
2018-08-26 00:00:00 14.6 6 Norte 17 Norte 0 917.9 1.8 67
2018-08-25 23:00:00 15.6 9 Norte 26 Nordeste 0 917.7 2.4 63
2018-08-25 22:00:00 16.7 13 Norte 32 Noroeste 0 916.9 1.7 60
2018-08-25 21:00:00 18.3 14 Norte 28 Norte 0 916.1 1.2 55
2018-08-25 20:00:00 21.1 12 Norte 26 Norte 0 915.3 0.2 46
2018-08-25 19:00:00 22.7 13 Norte 31 Nordeste 0 915.2 0.1 42
2018-08-25 18:00:00 24.2 12 Nordeste 26 Norte 0 914.9 -0.6 39
2018-08-25 17:00:00 24.6 10 Norte 28 Norte 0 915.1 -0.9 38
2018-08-25 16:00:00 26.3 14 Norte 27 Nordeste 0 915.1 -1.9 34
2018-08-25 15:00:00 26.5 8 Noroeste 21 Nordeste 0 915.5 -2 35
2018-08-25 14:00:00 25.1 7 Nordeste 14 Norte 0 916 -1.8 35
2018-08-25 13:00:00 23.2 6 Noroeste 14 Oeste 0 917 -1.1 46
2018-08-25 12:00:00 20.7 5 Noroeste 12 Noroeste 0 917.5 -0.5 53
2018-08-25 11:00:00 17.9 4 Noroeste 9 Noroeste 0 917.8 -0.1 67
2018-08-25 10:00:00 14.6 3 Noroeste 6 Norte 0 918.1 0.4 78
2018-08-25 09:00:00 11.8 2 Nordeste 4 Este 0 918 0.2 88
2018-08-25 08:00:00 9.8 3 Norte 6 Nordeste 0 917.9 -0.1 92
2018-08-25 07:00:00 10 3 Oeste 6 Noroeste 0 917.7 -0.8 92
2018-08-25 06:00:00 10.6 0 Calma 4 Norte 0 917.8 -0.9 90
2018-08-25 05:00:00 11.7 2 Sur 6 Sudeste 0 918 -1.1 85
2018-08-25 04:00:00 12.3 0 Calma 7 Norte 0 918.5 -0.8 85
2018-08-25 03:00:00 13.2 4 Norte 8 Norte 0 918.7 -0.6 82
2018-08-25 02:00:00 13.9 3 Norte 6 Oeste 0 919.1 -0.1 79
2018-08-25 01:00:00 14.7 3 Noroeste 9 Noroeste 0 919.3 0.5 76
2018-08-25 00:00:00 15.6 3 Norte 11 Norte 0 919.3 1.4 71